sensor_id;sensor_type;location;lat;lon;timestamp;pressure;altitude;pressure_sealevel;temperature;humidity
37610;BME280;23457;51.966;8.230;2023-08-06T00:01:10;99935.69;;;16.37;100.00
37610;BME280;23457;51.966;8.230;2023-08-06T00:03:37;99943.31;;;16.49;100.00
37610;BME280;23457;51.966;8.230;2023-08-06T00:06:07;99935.63;;;16.40;100.00
37610;BME280;23457;51.966;8.230;2023-08-06T00:08:34;99928.63;;;16.40;100.00
37610;BME280;23457;51.966;8.230;2023-08-06T00:11:00;99928.81;;;16.33;100.00
37610;BME280;23457;51.966;8.230;2023-08-06T00:13:27;99927.84;;;16.35;100.00
37610;BME280;23457;51.966;8.230;2023-08-06T00:15:54;99930.50;;;16.34;100.00
37610;BME280;23457;51.966;8.230;2023-08-06T00:18:21;99930.50;;;16.34;100.00
37610;BME280;23457;51.966;8.230;2023-08-06T00:20:48;99916.00;;;16.18;100.00
37610;BME280;23457;51.966;8.230;2023-08-06T00:23:14;99913.19;;;16.27;100.00
37610;BME280;23457;51.966;8.230;2023-08-06T00:25:41;99921.81;;;16.32;100.00
37610;BME280;23457;51.966;8.230;2023-08-06T00:28:08;99914.72;;;16.37;100.00
37610;BME280;23457;51.966;8.230;2023-08-06T00:30:34;99919.28;;;16.27;100.00
37610;BME280;23457;51.966;8.230;2023-08-06T00:33:01;99917.59;;;16.25;100.00
37610;BME280;23457;51.966;8.230;2023-08-06T00:35:29;99921.94;;;16.26;100.00
37610;BME280;23457;51.966;8.230;2023-08-06T00:37:56;99910.59;;;16.25;100.00
37610;BME280;23457;51.966;8.230;2023-08-06T00:40:23;99910.69;;;16.21;100.00
37610;BME280;23457;51.966;8.230;2023-08-06T00:42:49;99909.91;;;16.16;100.00
37610;BME280;23457;51.966;8.230;2023-08-06T00:45:16;99907.28;;;16.16;100.00
37610;BME280;23457;51.966;8.230;2023-08-06T00:47:44;99908.88;;;16.23;100.00
37610;BME280;23457;51.966;8.230;2023-08-06T00:50:13;99906.59;;;16.07;100.00
37610;BME280;23457;51.966;8.230;2023-08-06T00:52:40;99904.72;;;16.12;100.00
37610;BME280;23457;51.966;8.230;2023-08-06T00:55:08;99908.13;;;16.18;100.00
37610;BME280;23457;51.966;8.230;2023-08-06T00:57:37;99902.00;;;16.19;100.00
37610;BME280;23457;51.966;8.230;2023-08-06T01:00:04;99897.44;;;16.27;100.00
37610;BME280;23457;51.966;8.230;2023-08-06T01:02:31;99900.00;;;16.30;100.00
37610;BME280;23457;51.966;8.230;2023-08-06T01:04:58;99886.00;;;16.31;100.00
37610;BME280;23457;51.966;8.230;2023-08-06T01:12:57;99889.00;;;16.12;100.00
37610;BME280;23457;51.966;8.230;2023-08-06T01:15:32;99885.28;;;16.23;100.00
37610;BME280;23457;51.966;8.230;2023-08-06T01:18:02;99888.69;;;16.28;100.00
37610;BME280;23457;51.966;8.230;2023-08-06T01:20:30;99886.22;;;16.20;100.00
37610;BME280;23457;51.966;8.230;2023-08-06T01:22:57;99879.16;;;16.22;100.00
37610;BME280;23457;51.966;8.230;2023-08-06T01:25:31;99880.91;;;16.23;100.00
37610;BME280;23457;51.966;8.230;2023-08-06T01:28:32;99873.00;;;16.25;100.00
37610;BME280;23457;51.966;8.230;2023-08-06T01:31:04;99875.63;;;16.25;100.00
37610;BME280;23457;51.966;8.230;2023-08-06T01:33:34;99873.84;;;16.27;100.00
37610;BME280;23457;51.966;8.230;2023-08-06T01:36:04;99867.78;;;16.25;100.00
37610;BME280;23457;51.966;8.230;2023-08-06T01:38:32;99862.66;;;16.19;100.00
37610;BME280;23457;51.966;8.230;2023-08-06T01:40:59;99863.38;;;16.25;100.00
37610;BME280;23457;51.966;8.230;2023-08-06T01:43:25;99855.47;;;16.28;100.00
37610;BME280;23457;51.966;8.230;2023-08-06T01:45:52;99862.38;;;16.32;100.00
37610;BME280;23457;51.966;8.230;2023-08-06T01:48:19;99855.56;;;16.24;100.00
37610;BME280;23457;51.966;8.230;2023-08-06T01:50:46;99864.59;;;16.09;100.00
37610;BME280;23457;51.966;8.230;2023-08-06T01:53:12;99846.25;;;16.09;100.00
37610;BME280;23457;51.966;8.230;2023-08-06T01:55:39;99851.31;;;16.18;100.00
37610;BME280;23457;51.966;8.230;2023-08-06T01:58:06;99835.50;;;16.21;100.00
37610;BME280;23457;51.966;8.230;2023-08-06T02:00:33;99837.94;;;16.30;100.00
37610;BME280;23457;51.966;8.230;2023-08-06T02:02:59;99839.78;;;16.25;100.00
37610;BME280;23457;51.966;8.230;2023-08-06T02:05:26;99841.50;;;16.28;100.00
37610;BME280;23457;51.966;8.230;2023-08-06T02:07:56;99836.25;;;16.28;100.00
37610;BME280;23457;51.966;8.230;2023-08-06T02:10:23;99835.41;;;16.26;100.00
37610;BME280;23457;51.966;8.230;2023-08-06T02:12:49;99834.19;;;16.00;100.00
37610;BME280;23457;51.966;8.230;2023-08-06T02:15:16;99833.09;;;16.10;100.00
37610;BME280;23457;51.966;8.230;2023-08-06T02:17:43;99830.50;;;16.09;100.00
37610;BME280;23457;51.966;8.230;2023-08-06T02:20:13;99828.03;;;16.03;100.00
37610;BME280;23457;51.966;8.230;2023-08-06T02:22:40;99825.31;;;16.07;100.00
37610;BME280;23457;51.966;8.230;2023-08-06T02:25:07;99822.72;;;16.06;100.00
37610;BME280;23457;51.966;8.230;2023-08-06T02:27:34;99818.41;;;16.03;100.00
37610;BME280;23457;51.966;8.230;2023-08-06T02:30:01;99829.78;;;16.02;100.00
37610;BME280;23457;51.966;8.230;2023-08-06T02:32:29;99818.13;;;16.17;100.00
37610;BME280;23457;51.966;8.230;2023-08-06T02:34:59;99817.25;;;16.17;100.00
37610;BME280;23457;51.966;8.230;2023-08-06T02:37:26;99821.59;;;16.19;100.00
37610;BME280;23457;51.966;8.230;2023-08-06T02:39:53;99814.75;;;16.10;100.00
37610;BME280;23457;51.966;8.230;2023-08-06T02:42:19;99807.88;;;16.06;100.00
37610;BME280;23457;51.966;8.230;2023-08-06T02:44:46;99811.28;;;16.08;100.00
37610;BME280;23457;51.966;8.230;2023-08-06T02:47:13;99808.69;;;16.08;100.00
37610;BME280;23457;51.966;8.230;2023-08-06T02:49:40;99799.91;;;16.11;100.00
37610;BME280;23457;51.966;8.230;2023-08-06T02:52:07;99807.22;;;15.95;100.00
37610;BME280;23457;51.966;8.230;2023-08-06T02:54:34;99807.41;;;15.86;100.00
37610;BME280;23457;51.966;8.230;2023-08-06T02:57:01;99801.19;;;15.92;100.00
37610;BME280;23457;51.966;8.230;2023-08-06T02:59:30;99793.50;;;15.83;100.00
37610;BME280;23457;51.966;8.230;2023-08-06T03:02:18;99792.47;;;15.90;100.00
37610;BME280;23457;51.966;8.230;2023-08-06T03:05:00;99782.06;;;15.87;100.00
37610;BME280;23457;51.966;8.230;2023-08-06T03:07:31;99784.78;;;15.82;100.00
37610;BME280;23457;51.966;8.230;2023-08-06T03:10:06;99781.38;;;15.77;100.00
37610;BME280;23457;51.966;8.230;2023-08-06T03:12:34;99778.72;;;15.80;100.00
37610;BME280;23457;51.966;8.230;2023-08-06T03:15:03;99781.50;;;15.71;100.00
37610;BME280;23457;51.966;8.230;2023-08-06T03:17:30;99781.44;;;15.74;100.00
37610;BME280;23457;51.966;8.230;2023-08-06T03:19:57;99767.50;;;15.72;100.00
37610;BME280;23457;51.966;8.230;2023-08-06T03:22:24;99773.47;;;15.80;100.00
37610;BME280;23457;51.966;8.230;2023-08-06T03:24:51;99762.19;;;15.76;100.00
37610;BME280;23457;51.966;8.230;2023-08-06T03:27:21;99765.66;;;15.77;100.00
37610;BME280;23457;51.966;8.230;2023-08-06T03:29:49;99769.19;;;15.76;100.00
37610;BME280;23457;51.966;8.230;2023-08-06T03:32:19;99769.44;;;15.64;100.00
37610;BME280;23457;51.966;8.230;2023-08-06T03:34:46;99772.88;;;15.66;100.00
37610;BME280;23457;51.966;8.230;2023-08-06T03:37:14;99771.00;;;15.71;100.00
37610;BME280;23457;51.966;8.230;2023-08-06T03:39:40;99767.44;;;15.75;100.00
37610;BME280;23457;51.966;8.230;2023-08-06T03:42:07;99771.09;;;15.68;100.00
37610;BME280;23457;51.966;8.230;2023-08-06T03:44:37;99769.38;;;15.67;100.00
37610;BME280;23457;51.966;8.230;2023-08-06T03:47:06;99769.56;;;15.58;100.00
37610;BME280;23457;51.966;8.230;2023-08-06T03:49:33;99775.56;;;15.61;100.00
37610;BME280;23457;51.966;8.230;2023-08-06T03:52:00;99768.41;;;15.71;100.00
37610;BME280;23457;51.966;8.230;2023-08-06T03:54:26;99757.13;;;15.69;100.00
37610;BME280;23457;51.966;8.230;2023-08-06T03:56:53;99756.09;;;15.74;100.00
37610;BME280;23457;51.966;8.230;2023-08-06T03:59:20;99756.28;;;15.67;100.00
37610;BME280;23457;51.966;8.230;2023-08-06T04:01:47;99755.31;;;15.71;100.00
37610;BME280;23457;51.966;8.230;2023-08-06T04:04:14;99753.50;;;15.74;100.00
37610;BME280;23457;51.966;8.230;2023-08-06T04:06:41;99756.97;;;15.75;100.00
37610;BME280;23457;51.966;8.230;2023-08-06T04:09:08;99745.75;;;15.70;100.00
37610;BME280;23457;51.966;8.230;2023-08-06T04:11:34;99747.31;;;15.79;100.00
37610;BME280;23457;51.966;8.230;2023-08-06T04:14:02;99749.91;;;15.80;100.00
37610;BME280;23457;51.966;8.230;2023-08-06T04:16:29;99746.38;;;15.81;100.00
37610;BME280;23457;51.966;8.230;2023-08-06T04:18:56;99741.19;;;15.78;100.00
37610;BME280;23457;51.966;8.230;2023-08-06T04:21:24;99743.75;;;15.81;100.00
37610;BME280;23457;51.966;8.230;2023-08-06T04:23:51;99746.69;;;15.66;100.00
37610;BME280;23457;51.966;8.230;2023-08-06T04:26:18;99745.00;;;15.62;100.00
37610;BME280;23457;51.966;8.230;2023-08-06T04:28:45;99747.34;;;15.75;100.00
37610;BME280;23457;51.966;8.230;2023-08-06T04:31:12;99747.34;;;15.75;100.00
37610;BME280;23457;51.966;8.230;2023-08-06T04:33:41;99746.53;;;15.72;100.00
37610;BME280;23457;51.966;8.230;2023-08-06T04:36:11;99747.31;;;15.79;100.00
37610;BME280;23457;51.966;8.230;2023-08-06T04:38:38;99746.47;;;15.76;100.00
37610;BME280;23457;51.966;8.230;2023-08-06T04:41:05;99745.63;;;15.74;100.00
37610;BME280;23457;51.966;8.230;2023-08-06T04:43:32;99743.00;;;15.74;100.00
37610;BME280;23457;51.966;8.230;2023-08-06T04:45:59;99748.16;;;15.79;100.00
37610;BME280;23457;51.966;8.230;2023-08-06T04:48:25;99748.22;;;15.76;100.00
37610;BME280;23457;51.966;8.230;2023-08-06T04:50:52;99750.66;;;15.85;100.00
37610;BME280;23457;51.966;8.230;2023-08-06T04:53:19;99742.97;;;15.76;100.00
37610;BME280;23457;51.966;8.230;2023-08-06T04:55:46;99749.13;;;15.73;100.00
37610;BME280;23457;51.966;8.230;2023-08-06T04:58:13;99753.41;;;15.79;100.00
37610;BME280;23457;51.966;8.230;2023-08-06T05:00:40;99755.31;;;15.71;100.00
37610;BME280;23457;51.966;8.230;2023-08-06T05:03:06;99744.09;;;15.64;100.00
37610;BME280;23457;51.966;8.230;2023-08-06T05:05:34;99756.16;;;15.71;100.00
37610;BME280;23457;51.966;8.230;2023-08-06T05:08:01;99752.75;;;15.68;100.00
37610;BME280;23457;51.966;8.230;2023-08-06T05:10:27;99752.03;;;15.60;100.00
37610;BME280;23457;51.966;8.230;2023-08-06T05:12:54;99762.25;;;15.72;100.00
37610;BME280;23457;51.966;8.230;2023-08-06T05:15:21;99754.41;;;15.72;100.00
37610;BME280;23457;51.966;8.230;2023-08-06T05:17:48;99756.97;;;15.75;100.00
37610;BME280;23457;51.966;8.230;2023-08-06T05:20:15;99757.19;;;15.64;100.00
37610;BME280;23457;51.966;8.230;2023-08-06T05:22:43;99757.84;;;15.75;100.00
37610;BME280;23457;51.966;8.230;2023-08-06T05:25:13;99758.75;;;15.73;100.00
37610;BME280;23457;51.966;8.230;2023-08-06T05:27:41;99758.66;;;15.79;100.00
37610;BME280;23457;51.966;8.230;2023-08-06T05:30:08;99761.38;;;15.73;100.00
37610;BME280;23457;51.966;8.230;2023-08-06T05:32:35;99761.41;;;15.71;100.00
37610;BME280;23457;51.966;8.230;2023-08-06T05:35:02;99769.31;;;15.70;100.00
37610;BME280;23457;51.966;8.230;2023-08-06T05:37:29;99765.97;;;15.62;100.00
37610;BME280;23457;51.966;8.230;2023-08-06T05:39:56;99773.56;;;15.75;100.00
37610;BME280;23457;51.966;8.230;2023-08-06T05:42:22;99770.03;;;15.78;100.00
37610;BME280;23457;51.966;8.230;2023-08-06T05:44:49;99770.72;;;15.86;100.00
37610;BME280;23457;51.966;8.230;2023-08-06T05:47:16;99769.63;;;15.96;100.00
37610;BME280;23457;51.966;8.230;2023-08-06T05:49:42;99767.75;;;16.03;100.00
37610;BME280;23457;51.966;8.230;2023-08-06T05:52:09;99765.03;;;16.07;100.00
37610;BME280;23457;51.966;8.230;2023-08-06T05:54:36;99761.38;;;16.15;100.00
37610;BME280;23457;51.966;8.230;2023-08-06T05:57:03;99762.97;;;16.22;100.00
37610;BME280;23457;51.966;8.230;2023-08-06T05:59:30;99763.06;;;16.19;100.00
37610;BME280;23457;51.966;8.230;2023-08-06T06:01:56;99768.97;;;16.27;100.00
37610;BME280;23457;51.966;8.230;2023-08-06T06:04:23;99770.03;;;16.20;100.00
37610;BME280;23457;51.966;8.230;2023-08-06T06:06:50;99766.16;;;16.34;100.00
37610;BME280;23457;51.966;8.230;2023-08-06T06:09:16;99766.09;;;16.39;100.00
37610;BME280;23457;51.966;8.230;2023-08-06T06:11:43;99774.78;;;16.41;100.00
37610;BME280;23457;51.966;8.230;2023-08-06T06:14:10;99771.13;;;16.46;100.00
37610;BME280;23457;51.966;8.230;2023-08-06T06:16:36;99768.41;;;16.51;100.00
37610;BME280;23457;51.966;8.230;2023-08-06T06:19:03;99772.78;;;16.52;100.00
37610;BME280;23457;51.966;8.230;2023-08-06T06:21:30;99767.81;;;16.40;100.00
37610;BME280;23457;51.966;8.230;2023-08-06T06:23:57;99764.78;;;16.58;100.00
37610;BME280;23457;51.966;8.230;2023-08-06T06:26:24;99765.53;;;16.63;100.00
37610;BME280;23457;51.966;8.230;2023-08-06T06:28:51;99766.84;;;16.82;100.00
37610;BME280;23457;51.966;8.230;2023-08-06T06:31:17;99768.06;;;17.03;100.00
37610;BME280;23457;51.966;8.230;2023-08-06T06:33:44;99762.28;;;17.23;100.00
37610;BME280;23457;51.966;8.230;2023-08-06T06:36:11;99764.19;;;17.18;100.00
37610;BME280;23457;51.966;8.230;2023-08-06T06:38:38;99759.19;;;17.09;100.00
37610;BME280;23457;51.966;8.230;2023-08-06T06:41:05;99763.94;;;17.27;100.00
37610;BME280;23457;51.966;8.230;2023-08-06T06:43:32;99758.63;;;17.30;100.00
37610;BME280;23457;51.966;8.230;2023-08-06T06:45:59;99768.88;;;17.39;100.00
37610;BME280;23457;51.966;8.230;2023-08-06T06:48:28;99768.72;;;17.11;100.00
37610;BME280;23457;51.966;8.230;2023-08-06T06:50:55;99763.88;;;17.30;100.00
37610;BME280;23457;51.966;8.230;2023-08-06T06:53:22;99761.97;;;17.35;100.00
37610;BME280;23457;51.966;8.230;2023-08-06T06:55:55;99754.50;;;17.52;100.00
37610;BME280;23457;51.966;8.230;2023-08-06T06:58:22;99757.88;;;17.58;100.00
37610;BME280;23457;51.966;8.230;2023-08-06T07:00:49;99759.28;;;17.71;100.00
37610;BME280;23457;51.966;8.230;2023-08-06T07:03:15;99759.00;;;17.80;100.00
37610;BME280;23457;51.966;8.230;2023-08-06T07:05:43;99759.06;;;17.78;100.00
37610;BME280;23457;51.966;8.230;2023-08-06T07:08:10;99754.09;;;17.68;100.00
37610;BME280;23457;51.966;8.230;2023-08-06T07:10:38;99757.38;;;17.76;100.00
37610;BME280;23457;51.966;8.230;2023-08-06T07:13:09;99757.22;;;17.82;100.00
37610;BME280;23457;51.966;8.230;2023-08-06T07:15:39;99757.53;;;18.01;100.00
37610;BME280;23457;51.966;8.230;2023-08-06T07:18:08;99757.84;;;17.90;100.00
37610;BME280;23457;51.966;8.230;2023-08-06T07:20:35;99755.59;;;18.07;100.00
37610;BME280;23457;51.966;8.230;2023-08-06T07:23:02;99744.75;;;18.18;100.00
37610;BME280;23457;51.966;8.230;2023-08-06T07:25:30;99754.13;;;18.26;100.00
37610;BME280;23457;51.966;8.230;2023-08-06T07:27:57;99749.53;;;18.33;100.00
37610;BME280;23457;51.966;8.230;2023-08-06T07:30:23;99757.19;;;18.41;100.00
37610;BME280;23457;51.966;8.230;2023-08-06T07:32:50;99751.16;;;18.37;100.00
37610;BME280;23457;51.966;8.230;2023-08-06T07:35:17;99747.53;;;18.41;100.00
37610;BME280;23457;51.966;8.230;2023-08-06T07:37:44;99756.09;;;18.48;100.00
37610;BME280;23457;51.966;8.230;2023-08-06T07:40:14;99762.72;;;18.61;100.00
37610;BME280;23457;51.966;8.230;2023-08-06T07:42:41;99760.19;;;18.58;100.00
37610;BME280;23457;51.966;8.230;2023-08-06T07:45:08;99752.81;;;18.69;100.00
37610;BME280;23457;51.966;8.230;2023-08-06T07:47:35;99754.31;;;18.76;100.00
37610;BME280;23457;51.966;8.230;2023-08-06T07:50:02;99759.34;;;18.84;100.00
37610;BME280;23457;51.966;8.230;2023-08-06T07:52:29;99752.16;;;18.89;100.00
37610;BME280;23457;51.966;8.230;2023-08-06T07:54:56;99756.22;;;18.99;100.00
37610;BME280;23457;51.966;8.230;2023-08-06T07:57:22;99759.00;;;18.94;100.00
37610;BME280;23457;51.966;8.230;2023-08-06T07:59:49;99755.00;;;18.83;100.00
37610;BME280;23457;51.966;8.230;2023-08-06T08:02:16;99751.19;;;18.91;100.00
37610;BME280;23457;51.966;8.230;2023-08-06T08:04:43;99750.88;;;19.01;100.00
37610;BME280;23457;51.966;8.230;2023-08-06T08:07:10;99736.31;;;18.90;100.00
37610;BME280;23457;51.966;8.230;2023-08-06T08:09:37;99746.31;;;19.06;100.00
37610;BME280;23457;51.966;8.230;2023-08-06T08:12:04;99746.66;;;19.21;100.00
37610;BME280;23457;51.966;8.230;2023-08-06T08:14:31;99751.56;;;19.32;100.00
37610;BME280;23457;51.966;8.230;2023-08-06T08:17:03;99755.25;;;19.26;100.00
37610;BME280;23457;51.966;8.230;2023-08-06T08:19:30;99749.09;;;19.52;100.00
37610;BME280;23457;51.966;8.230;2023-08-06T08:21:57;99753.16;;;19.62;100.00
37610;BME280;23457;51.966;8.230;2023-08-06T08:24:24;99747.56;;;19.45;100.00
37610;BME280;23457;51.966;8.230;2023-08-06T08:26:51;99754.56;;;19.46;100.00
37610;BME280;23457;51.966;8.230;2023-08-06T08:29:22;99747.22;;;19.56;100.00
37610;BME280;23457;51.966;8.230;2023-08-06T08:31:49;99750.13;;;19.73;96.40
37610;BME280;23457;51.966;8.230;2023-08-06T08:34:17;99742.22;;;19.73;100.00
37610;BME280;23457;51.966;8.230;2023-08-06T08:36:44;99746.03;;;19.64;92.93
37610;BME280;23457;51.966;8.230;2023-08-06T08:39:13;99745.16;;;19.64;94.27
37610;BME280;23457;51.966;8.230;2023-08-06T08:41:42;99739.34;;;19.79;94.26
37610;BME280;23457;51.966;8.230;2023-08-06T08:44:09;99753.72;;;19.94;95.26
37610;BME280;23457;51.966;8.230;2023-08-06T08:46:40;99743.34;;;19.66;99.50
37610;BME280;23457;51.966;8.230;2023-08-06T08:49:07;99749.16;;;19.76;93.40
37610;BME280;23457;51.966;8.230;2023-08-06T08:51:34;99746.56;;;19.74;95.41
37610;BME280;23457;51.966;8.230;2023-08-06T08:54:03;99744.56;;;19.81;91.98
37610;BME280;23457;51.966;8.230;2023-08-06T08:56:31;99742.59;;;19.62;90.00
37610;BME280;23457;51.966;8.230;2023-08-06T08:58:58;99745.34;;;19.83;96.45
37610;BME280;23457;51.966;8.230;2023-08-06T09:01:26;99752.97;;;19.90;90.12
37610;BME280;23457;51.966;8.230;2023-08-06T09:03:55;99755.44;;;19.95;91.93
37610;BME280;23457;51.966;8.230;2023-08-06T09:06:23;99747.75;;;19.89;94.16
37610;BME280;23457;51.966;8.230;2023-08-06T09:09:04;99748.06;;;19.81;99.87
37610;BME280;23457;51.966;8.230;2023-08-06T09:11:43;99747.53;;;19.47;100.00
37610;BME280;23457;51.966;8.230;2023-08-06T09:14:11;99750.84;;;19.77;92.73
37610;BME280;23457;51.966;8.230;2023-08-06T09:16:38;99745.00;;;19.92;93.94
37610;BME280;23457;51.966;8.230;2023-08-06T09:21:42;99746.38;;;20.02;91.68
37610;BME280;23457;51.966;8.230;2023-08-06T09:26:41;99740.38;;;19.98;96.34
37610;BME280;23457;51.966;8.230;2023-08-06T09:29:09;99749.69;;;19.60;97.66
37610;BME280;23457;51.966;8.230;2023-08-06T09:34:21;99757.28;;;19.93;93.61
37610;BME280;23457;51.966;8.230;2023-08-06T09:36:50;99748.38;;;20.19;93.21
37610;BME280;23457;51.966;8.230;2023-08-06T09:39:26;99744.22;;;20.36;94.77
37610;BME280;23457;51.966;8.230;2023-08-06T09:42:00;99749.53;;;20.57;94.94
37610;BME280;23457;51.966;8.230;2023-08-06T09:44:30;99750.09;;;21.07;94.28
37610;BME280;23457;51.966;8.230;2023-08-06T09:46:57;99741.38;;;21.05;89.81
37610;BME280;23457;51.966;8.230;2023-08-06T09:51:54;99749.66;;;20.54;91.00
37610;BME280;23457;51.966;8.230;2023-08-06T09:54:23;99752.25;;;20.77;88.47
37610;BME280;23457;51.966;8.230;2023-08-06T09:56:54;99738.59;;;20.88;88.81
37610;BME280;23457;51.966;8.230;2023-08-06T09:59:23;99732.88;;;20.98;90.09
37610;BME280;23457;51.966;8.230;2023-08-06T10:01:51;99733.13;;;20.92;90.22
37610;BME280;23457;51.966;8.230;2023-08-06T10:04:19;99733.66;;;21.00;92.42
37610;BME280;23457;51.966;8.230;2023-08-06T10:06:50;99733.97;;;21.35;88.12
37610;BME280;23457;51.966;8.230;2023-08-06T10:09:17;99734.38;;;21.26;88.78
37610;BME280;23457;51.966;8.230;2023-08-06T10:11:50;99722.88;;;21.66;86.72
37610;BME280;23457;51.966;8.230;2023-08-06T10:14:33;99727.84;;;21.92;83.21
37610;BME280;23457;51.966;8.230;2023-08-06T10:17:00;99726.66;;;22.18;79.69
37610;BME280;23457;51.966;8.230;2023-08-06T10:19:30;99724.50;;;21.89;81.68
37610;BME280;23457;51.966;8.230;2023-08-06T10:22:17;99725.19;;;21.73;81.83
37610;BME280;23457;51.966;8.230;2023-08-06T10:24:52;99722.25;;;21.40;87.64
37610;BME280;23457;51.966;8.230;2023-08-06T10:29:47;99721.25;;;21.43;85.11
37610;BME280;23457;51.966;8.230;2023-08-06T10:32:14;99718.97;;;21.35;85.74
37610;BME280;23457;51.966;8.230;2023-08-06T10:34:57;99708.66;;;21.29;89.88
37610;BME280;23457;51.966;8.230;2023-08-06T10:37:34;99712.75;;;21.36;84.29
37610;BME280;23457;51.966;8.230;2023-08-06T10:40:02;99714.00;;;21.48;86.94
37610;BME280;23457;51.966;8.230;2023-08-06T10:42:30;99717.88;;;21.78;82.27
37610;BME280;23457;51.966;8.230;2023-08-06T10:47:43;99716.28;;;21.56;82.59
37610;BME280;23457;51.966;8.230;2023-08-06T10:50:12;99715.16;;;21.61;87.38
37610;BME280;23457;51.966;8.230;2023-08-06T10:52:46;99718.44;;;21.48;85.59
37610;BME280;23457;51.966;8.230;2023-08-06T10:55:14;99719.44;;;21.25;85.68
37610;BME280;23457;51.966;8.230;2023-08-06T10:57:48;99709.38;;;21.33;88.38
37610;BME280;23457;51.966;8.230;2023-08-06T11:00:15;99711.63;;;21.01;86.46
37610;BME280;23457;51.966;8.230;2023-08-06T11:02:43;99712.25;;;21.06;85.57
37610;BME280;23457;51.966;8.230;2023-08-06T11:05:13;99712.38;;;21.25;84.98
37610;BME280;23457;51.966;8.230;2023-08-06T11:07:40;99719.25;;;21.07;85.40
37610;BME280;23457;51.966;8.230;2023-08-06T11:10:08;99711.88;;;20.95;85.45
37610;BME280;23457;51.966;8.230;2023-08-06T11:12:36;99704.53;;;21.42;90.40
37610;BME280;23457;51.966;8.230;2023-08-06T11:15:04;99697.63;;;21.98;86.34
37610;BME280;23457;51.966;8.230;2023-08-06T11:17:32;99695.28;;;22.46;84.37
37610;BME280;23457;51.966;8.230;2023-08-06T11:20:01;99698.06;;;22.62;79.48
37610;BME280;23457;51.966;8.230;2023-08-06T11:22:28;99700.84;;;22.23;79.68
37610;BME280;23457;51.966;8.230;2023-08-06T11:24:55;99701.00;;;22.56;81.90
37610;BME280;23457;51.966;8.230;2023-08-06T11:27:22;99699.13;;;22.77;78.30
37610;BME280;23457;51.966;8.230;2023-08-06T11:29:49;99692.97;;;22.40;76.83
37610;BME280;23457;51.966;8.230;2023-08-06T11:32:16;99700.44;;;22.13;81.42
37610;BME280;23457;51.966;8.230;2023-08-06T11:34:44;99689.81;;;22.32;80.31
37610;BME280;23457;51.966;8.230;2023-08-06T11:37:10;99689.34;;;22.24;77.63
37610;BME280;23457;51.966;8.230;2023-08-06T11:39:38;99688.13;;;22.12;76.84
37610;BME280;23457;51.966;8.230;2023-08-06T11:42:06;99695.41;;;21.89;78.11
37610;BME280;23457;51.966;8.230;2023-08-06T11:44:36;99689.47;;;21.84;79.48
37610;BME280;23457;51.966;8.230;2023-08-06T11:47:04;99694.75;;;21.84;79.17
37610;BME280;23457;51.966;8.230;2023-08-06T11:52:10;99688.66;;;22.02;80.98
37610;BME280;23457;51.966;8.230;2023-08-06T11:54:38;99687.50;;;21.68;80.90
37610;BME280;23457;51.966;8.230;2023-08-06T11:57:05;99685.53;;;21.73;81.40
37610;BME280;23457;51.966;8.230;2023-08-06T11:59:32;99685.16;;;22.01;82.00
37610;BME280;23457;51.966;8.230;2023-08-06T12:02:03;99673.72;;;22.18;78.87
37610;BME280;23457;51.966;8.230;2023-08-06T12:07:29;99674.19;;;21.90;82.75
37610;BME280;23457;51.966;8.230;2023-08-06T12:09:56;99674.50;;;22.03;79.15
37610;BME280;23457;51.966;8.230;2023-08-06T12:12:23;99673.03;;;22.14;79.78
37610;BME280;23457;51.966;8.230;2023-08-06T12:14:50;99671.41;;;22.29;79.16
37610;BME280;23457;51.966;8.230;2023-08-06T12:17:17;99678.88;;;22.40;79.82
37610;BME280;23457;51.966;8.230;2023-08-06T12:19:45;99672.53;;;22.42;77.36
37610;BME280;23457;51.966;8.230;2023-08-06T12:22:13;99677.50;;;22.31;76.18
37610;BME280;23457;51.966;8.230;2023-08-06T12:24:42;99669.09;;;22.23;77.06
37610;BME280;23457;51.966;8.230;2023-08-06T12:27:09;99662.81;;;22.26;78.11
37610;BME280;23457;51.966;8.230;2023-08-06T12:29:44;99664.13;;;22.34;79.79
37610;BME280;23457;51.966;8.230;2023-08-06T12:32:11;99669.88;;;22.25;76.80
37610;BME280;23457;51.966;8.230;2023-08-06T12:34:39;99664.47;;;22.09;74.48
37610;BME280;23457;51.966;8.230;2023-08-06T12:37:18;99670.38;;;21.96;72.22
37610;BME280;23457;51.966;8.230;2023-08-06T12:39:45;99684.56;;;21.56;76.14
37610;BME280;23457;51.966;8.230;2023-08-06T12:42:11;99679.94;;;21.61;74.24
37610;BME280;23457;51.966;8.230;2023-08-06T12:44:39;99686.72;;;21.66;77.80
37610;BME280;23457;51.966;8.230;2023-08-06T12:47:07;99696.59;;;21.63;80.25
37610;BME280;23457;51.966;8.230;2023-08-06T12:49:34;99696.66;;;21.22;87.76
37610;BME280;23457;51.966;8.230;2023-08-06T12:52:01;99707.78;;;20.88;90.89
37610;BME280;23457;51.966;8.230;2023-08-06T12:54:28;99697.78;;;20.95;91.95
37610;BME280;23457;51.966;8.230;2023-08-06T12:56:55;99700.97;;;21.03;92.65
37610;BME280;23457;51.966;8.230;2023-08-06T12:59:22;99702.66;;;20.63;96.22
37610;BME280;23457;51.966;8.230;2023-08-06T13:01:48;99711.47;;;20.41;97.74
37610;BME280;23457;51.966;8.230;2023-08-06T13:04:15;99707.28;;;20.35;100.00
37610;BME280;23457;51.966;8.230;2023-08-06T13:06:49;99719.28;;;20.44;100.00
37610;BME280;23457;51.966;8.230;2023-08-06T13:09:16;99720.31;;;20.39;100.00
37610;BME280;23457;51.966;8.230;2023-08-06T13:11:43;99727.00;;;20.03;100.00
37610;BME280;23457;51.966;8.230;2023-08-06T13:14:13;99744.41;;;19.85;100.00
37610;BME280;23457;51.966;8.230;2023-08-06T13:16:42;99750.97;;;19.74;100.00
37610;BME280;23457;51.966;8.230;2023-08-06T13:19:09;99751.88;;;19.23;100.00
37610;BME280;23457;51.966;8.230;2023-08-06T13:24:16;99736.53;;;18.84;100.00
37610;BME280;23457;51.966;8.230;2023-08-06T13:26:43;99732.56;;;18.98;100.00